Time;durP1;ratioP1;P1;durP2;ratioP2;P2;SDS_P1;SDS_P2;PMS_P1;PMS_P2;Temp;Humidity;BMP_temperature;BMP_pressure;BME280_temperature;BME280_humidity;BME280_pressure;Samples;Min_cycle;Max_cycle;Signal;HPM_P1;HPM_P2
2022/08/05 00:00:00;;;;;;;0.1;0.1;;;;;;;22.4;100.0;101230;;;;
2022/08/05 00:01:10;;;;;;;0.1;0.1;;;;;;;22.4;100.0;101230;;;;
2022/08/05 00:02:08;;;;;;;0.1;0.1;;;;;;;22.5;100.0;101220;;;;
2022/08/05 00:03:00;;;;;;;0.1;0.1;;;;;;;22.5;100.0;101220;;;;
2022/08/05 00:04:00;;;;;;;0.1;0.1;;;;;;;22.5;100.0;101220;;;;
2022/08/05 00:05:05;;;;;;;0.1;0.1;;;;;;;22.4;100.0;101210;;;;
2022/08/05 00:06:10;;;;;;;0.1;0.1;;;;;;;22.2;100.0;101200;;;;
2022/08/05 00:07:10;;;;;;;0.1;0.1;;;;;;;22.2;100.0;101200;;;;
2022/08/05 00:08:01;;;;;;;0.1;0.1;;;;;;;22.2;100.0;101200;;;;
2022/08/05 00:09:00;;;;;;;0.1;0.1;;;;;;;22.0;100.0;101200;;;;
2022/08/05 00:10:00;;;;;;;0.1;0.1;;;;;;;22.0;100.0;101200;;;;
2022/08/05 00:11:01;;;;;;;0.1;0.1;;;;;;;22.0;100.0;101190;;;;
2022/08/05 00:12:00;;;;;;;0.1;0.1;;;;;;;22.0;100.0;101190;;;;
2022/08/05 00:13:00;;;;;;;0.1;0.1;;;;;;;21.9;100.0;101190;;;;
2022/08/05 00:14:02;;;;;;;0.1;0.1;;;;;;;21.9;100.0;101190;;;;
2022/08/05 00:15:10;;;;;;;0.1;0.1;;;;;;;21.8;100.0;101190;;;;
2022/08/05 00:16:00;;;;;;;0.1;0.1;;;;;;;21.8;100.0;101190;;;;
2022/08/05 00:17:03;;;;;;;0.1;0.1;;;;;;;21.9;100.0;101200;;;;
2022/08/05 00:18:02;;;;;;;0.1;0.1;;;;;;;21.9;100.0;101200;;;;
2022/08/05 00:19:00;;;;;;;0.1;0.1;;;;;;;22.1;100.0;101200;;;;
2022/08/05 00:20:03;;;;;;;0.1;0.1;;;;;;;22.1;100.0;101200;;;;
2022/08/05 00:21:00;;;;;;;0.1;0.1;;;;;;;21.9;100.0;101210;;;;
2022/08/05 00:22:01;;;;;;;0.1;0.1;;;;;;;21.9;100.0;101210;;;;
2022/08/05 00:23:10;;;;;;;0.1;0.1;;;;;;;22.1;100.0;101210;;;;
2022/08/05 00:24:10;;;;;;;0.1;0.1;;;;;;;22.1;100.0;101210;;;;
2022/08/05 00:25:01;;;;;;;0.1;0.1;;;;;;;22.1;100.0;101210;;;;
2022/08/05 00:26:01;;;;;;;0.1;0.1;;;;;;;22.1;100.0;101210;;;;
2022/08/05 00:27:00;;;;;;;0.1;0.1;;;;;;;22.1;100.0;101200;;;;
2022/08/05 00:28:00;;;;;;;0.1;0.1;;;;;;;22.1;100.0;101200;;;;
2022/08/05 00:29:00;;;;;;;0.1;0.1;;;;;;;22.2;100.0;101200;;;;
2022/08/05 00:30:03;;;;;;;0.1;0.1;;;;;;;22.2;100.0;101200;;;;
2022/08/05 00:31:04;;;;;;;0.1;0.1;;;;;;;22.2;100.0;101200;;;;
2022/08/05 00:32:11;;;;;;;0.2;0.2;;;;;;;22.1;100.0;101200;;;;
2022/08/05 00:33:00;;;;;;;0.2;0.2;;;;;;;22.1;100.0;101200;;;;
2022/08/05 00:34:10;;;;;;;0.2;0.2;;;;;;;22.1;100.0;101210;;;;
2022/08/05 00:35:07;;;;;;;0.2;0.2;;;;;;;22.1;100.0;101210;;;;
2022/08/05 00:36:10;;;;;;;0.2;0.2;;;;;;;22.2;100.0;101220;;;;
2022/08/05 00:37:10;;;;;;;0.2;0.2;;;;;;;22.2;100.0;101220;;;;
2022/08/05 00:38:03;;;;;;;0.2;0.2;;;;;;;22.2;100.0;101220;;;;
2022/08/05 00:39:00;;;;;;;0.2;0.2;;;;;;;22.1;100.0;101210;;;;
2022/08/05 00:40:00;;;;;;;0.2;0.2;;;;;;;22.1;100.0;101210;;;;
2022/08/05 00:41:00;;;;;;;0.2;0.2;;;;;;;22.2;100.0;101210;;;;
2022/08/05 00:42:00;;;;;;;0.2;0.2;;;;;;;22.2;100.0;101210;;;;
2022/08/05 00:43:02;;;;;;;0.2;0.2;;;;;;;22.2;100.0;101200;;;;
2022/08/05 00:44:01;;;;;;;0.2;0.2;;;;;;;22.2;100.0;101200;;;;
2022/08/05 00:45:00;;;;;;;0.2;0.2;;;;;;;21.9;100.0;101200;;;;
2022/08/05 00:46:00;;;;;;;0.2;0.2;;;;;;;21.9;100.0;101200;;;;
2022/08/05 00:47:04;;;;;;;0.2;0.2;;;;;;;22.0;100.0;101200;;;;
2022/08/05 00:48:06;;;;;;;0.2;0.2;;;;;;;22.0;100.0;101200;;;;
2022/08/05 00:49:00;;;;;;;0.2;0.2;;;;;;;22.0;100.0;101200;;;;
2022/08/05 00:50:00;;;;;;;0.2;0.2;;;;;;;22.0;100.0;101200;;;;
2022/08/05 00:51:09;;;;;;;0.2;0.2;;;;;;;22.0;100.0;101200;;;;
2022/08/05 00:52:00;;;;;;;0.1;0.1;;;;;;;22.0;100.0;101200;;;;
2022/08/05 00:53:00;;;;;;;0.1;0.1;;;;;;;21.9;100.0;101200;;;;
2022/08/05 00:54:03;;;;;;;0.1;0.1;;;;;;;21.9;100.0;101200;;;;
2022/08/05 00:55:00;;;;;;;0.1;0.1;;;;;;;22.1;100.0;101200;;;;
2022/08/05 00:56:00;;;;;;;0.1;0.1;;;;;;;22.1;100.0;101200;;;;
2022/08/05 00:57:00;;;;;;;0.1;0.1;;;;;;;22.0;100.0;101200;;;;
2022/08/05 00:58:00;;;;;;;0.1;0.1;;;;;;;22.0;100.0;101200;;;;
2022/08/05 00:59:00;;;;;;;0.1;0.1;;;;;;;22.0;100.0;101200;;;;
2022/08/05 01:00:00;;;;;;;0.1;0.1;;;;;;;22.0;100.0;101200;;;;
2022/08/05 01:01:00;;;;;;;0.1;0.1;;;;;;;22.0;100.0;101210;;;;
2022/08/05 01:02:01;;;;;;;0.1;0.1;;;;;;;22.0;100.0;101210;;;;
2022/08/05 01:03:00;;;;;;;0.1;0.1;;;;;;;21.9;100.0;101210;;;;
2022/08/05 01:04:01;;;;;;;0.1;0.1;;;;;;;21.9;100.0;101210;;;;
2022/08/05 01:05:00;;;;;;;0.1;0.1;;;;;;;22.0;100.0;101210;;;;
2022/08/05 01:06:00;;;;;;;0.1;0.1;;;;;;;22.0;100.0;101210;;;;
2022/08/05 01:07:05;;;;;;;0.1;0.1;;;;;;;22.0;100.0;101200;;;;
2022/08/05 01:08:10;;;;;;;0.1;0.1;;;;;;;21.9;100.0;101210;;;;
2022/08/05 01:09:04;;;;;;;0.1;0.1;;;;;;;21.9;100.0;101210;;;;
2022/08/05 01:10:01;;;;;;;0.1;0.1;;;;;;;21.9;100.0;101210;;;;
2022/08/05 01:11:03;;;;;;;0.1;0.1;;;;;;;22.0;100.0;101200;;;;
2022/08/05 01:12:15;;;;;;;0.2;0.2;;;;;;;22.2;100.0;101200;;;;
2022/08/05 01:13:12;;;;;;;0.2;0.2;;;;;;;22.2;100.0;101200;;;;
2022/08/05 01:14:09;;;;;;;0.2;0.2;;;;;;;22.0;100.0;101200;;;;
2022/08/05 01:15:05;;;;;;;0.2;0.2;;;;;;;22.0;100.0;101200;;;;
2022/08/05 01:16:01;;;;;;;0.2;0.2;;;;;;;22.0;100.0;101200;;;;
2022/08/05 01:17:05;;;;;;;0.2;0.2;;;;;;;22.0;100.0;101210;;;;
2022/08/05 01:18:02;;;;;;;0.2;0.2;;;;;;;22.0;100.0;101210;;;;
2022/08/05 01:19:06;;;;;;;0.2;0.2;;;;;;;21.9;100.0;101210;;;;
2022/08/05 01:20:10;;;;;;;0.2;0.2;;;;;;;21.9;100.0;101220;;;;
2022/08/05 01:21:01;;;;;;;0.2;0.2;;;;;;;21.9;100.0;101220;;;;
2022/08/05 01:22:15;;;;;;;0.2;0.2;;;;;;;21.8;100.0;101220;;;;
2022/08/05 01:23:13;;;;;;;0.2;0.2;;;;;;;21.8;100.0;101220;;;;
2022/08/05 01:24:14;;;;;;;0.2;0.2;;;;;;;21.9;100.0;101230;;;;
2022/08/05 01:25:05;;;;;;;0.2;0.2;;;;;;;21.9;100.0;101230;;;;
2022/08/05 01:26:01;;;;;;;0.2;0.2;;;;;;;21.9;100.0;101230;;;;
2022/08/05 01:27:13;;;;;;;0.2;0.2;;;;;;;21.9;100.0;101230;;;;
2022/08/05 01:28:10;;;;;;;0.2;0.2;;;;;;;21.9;100.0;101230;;;;
2022/08/05 01:29:08;;;;;;;0.2;0.2;;;;;;;21.9;100.0;101230;;;;
2022/08/05 01:30:01;;;;;;;0.2;0.2;;;;;;;21.9;100.0;101230;;;;
2022/08/05 01:31:03;;;;;;;0.2;0.2;;;;;;;21.9;100.0;101240;;;;
2022/08/05 01:32:04;;;;;;;0.1;0.1;;;;;;;21.8;100.0;101250;;;;
2022/08/05 01:33:02;;;;;;;0.1;0.1;;;;;;;21.8;100.0;101250;;;;
2022/08/05 01:34:11;;;;;;;0.1;0.1;;;;;;;21.8;100.0;101250;;;;
2022/08/05 01:35:01;;;;;;;0.1;0.1;;;;;;;21.8;100.0;101250;;;;
2022/08/05 01:36:02;;;;;;;0.1;0.1;;;;;;;21.8;100.0;101250;;;;
2022/08/05 01:37:04;;;;;;;0.1;0.1;;;;;;;21.8;100.0;101260;;;;
2022/08/05 01:38:03;;;;;;;0.1;0.1;;;;;;;21.7;100.0;101260;;;;
2022/08/05 01:39:01;;;;;;;0.1;0.1;;;;;;;21.7;100.0;101260;;;;
2022/08/05 01:40:01;;;;;;;0.1;0.1;;;;;;;21.7;100.0;101260;;;;
2022/08/05 01:41:01;;;;;;;0.1;0.1;;;;;;;21.8;100.0;101250;;;;
2022/08/05 01:42:01;;;;;;;0.1;0.1;;;;;;;21.8;100.0;101250;;;;
2022/08/05 01:43:03;;;;;;;0.1;0.1;;;;;;;21.5;100.0;101250;;;;
2022/08/05 01:44:01;;;;;;;0.1;0.1;;;;;;;21.5;100.0;101250;;;;
2022/08/05 01:45:03;;;;;;;0.1;0.1;;;;;;;21.6;100.0;101250;;;;
2022/08/05 01:46:10;;;;;;;0.1;0.1;;;;;;;21.6;100.0;101260;;;;
2022/08/05 01:47:05;;;;;;;0.1;0.1;;;;;;;21.6;100.0;101260;;;;
2022/08/05 01:48:01;;;;;;;0.1;0.1;;;;;;;21.6;100.0;101260;;;;
2022/08/05 01:49:10;;;;;;;0.1;0.1;;;;;;;21.5;100.0;101250;;;;
2022/08/05 01:50:03;;;;;;;0.1;0.1;;;;;;;21.5;100.0;101250;;;;
2022/08/05 01:51:11;;;;;;;0.1;0.1;;;;;;;21.5;100.0;101250;;;;
2022/08/05 01:52:01;;;;;;;0.2;0.2;;;;;;;21.5;100.0;101250;;;;
2022/08/05 01:53:02;;;;;;;0.2;0.2;;;;;;;21.7;100.0;101260;;;;
2022/08/05 01:54:02;;;;;;;0.2;0.2;;;;;;;21.7;100.0;101260;;;;
2022/08/05 01:55:04;;;;;;;0.2;0.2;;;;;;;21.7;100.0;101270;;;;
2022/08/05 01:56:04;;;;;;;0.2;0.2;;;;;;;21.6;100.0;101270;;;;
2022/08/05 01:57:12;;;;;;;0.2;0.2;;;;;;;21.6;100.0;101270;;;;
2022/08/05 01:58:10;;;;;;;0.2;0.2;;;;;;;21.5;100.0;101270;;;;
2022/08/05 01:59:03;;;;;;;0.2;0.2;;;;;;;21.5;100.0;101270;;;;
2022/08/05 02:00:01;;;;;;;0.2;0.2;;;;;;;21.5;100.0;101270;;;;
2022/08/05 02:01:01;;;;;;;0.2;0.2;;;;;;;21.5;100.0;101280;;;;
2022/08/05 02:02:01;;;;;;;0.2;0.2;;;;;;;21.5;100.0;101280;;;;
2022/08/05 02:03:03;;;;;;;0.2;0.2;;;;;;;21.4;100.0;101290;;;;
2022/08/05 02:04:00;;;;;;;0.2;0.2;;;;;;;21.4;100.0;101290;;;;
2022/08/05 02:05:03;;;;;;;0.2;0.2;;;;;;;21.6;100.0;101290;;;;
2022/08/05 02:06:11;;;;;;;0.2;0.2;;;;;;;21.7;100.0;101280;;;;
2022/08/05 02:07:03;;;;;;;0.2;0.2;;;;;;;21.7;100.0;101280;;;;
2022/08/05 02:08:01;;;;;;;0.2;0.2;;;;;;;21.7;100.0;101280;;;;
2022/08/05 02:09:01;;;;;;;0.2;0.2;;;;;;;21.7;100.0;101270;;;;
2022/08/05 02:10:01;;;;;;;0.2;0.2;;;;;;;21.7;100.0;101270;;;;
2022/08/05 02:11:03;;;;;;;0.2;0.2;;;;;;;21.5;100.0;101270;;;;
2022/08/05 02:12:10;;;;;;;0.1;0.1;;;;;;;21.6;100.0;101250;;;;
2022/08/05 02:13:16;;;;;;;0.1;0.1;;;;;;;21.6;100.0;101250;;;;
2022/08/05 02:14:04;;;;;;;0.1;0.1;;;;;;;21.7;100.0;101250;;;;
2022/08/05 02:15:12;;;;;;;0.1;0.1;;;;;;;21.7;100.0;101250;;;;
2022/08/05 02:16:06;;;;;;;0.1;0.1;;;;;;;21.5;100.0;101240;;;;
2022/08/05 02:17:07;;;;;;;0.1;0.1;;;;;;;21.5;100.0;101240;;;;
2022/08/05 02:18:19;;;;;;;0.1;0.1;;;;;;;21.5;100.0;101230;;;;
2022/08/05 02:19:07;;;;;;;0.1;0.1;;;;;;;21.5;100.0;101230;;;;
2022/08/05 02:20:02;;;;;;;0.1;0.1;;;;;;;21.5;100.0;101230;;;;
2022/08/05 02:21:15;;;;;;;0.1;0.1;;;;;;;21.5;100.0;101230;;;;
2022/08/05 02:22:09;;;;;;;0.1;0.1;;;;;;;21.3;100.0;101230;;;;
2022/08/05 02:23:01;;;;;;;0.1;0.1;;;;;;;21.3;100.0;101230;;;;
2022/08/05 02:24:04;;;;;;;0.1;0.1;;;;;;;21.1;100.0;101230;;;;
2022/08/05 02:25:02;;;;;;;0.1;0.1;;;;;;;21.1;100.0;101230;;;;
2022/08/05 02:26:01;;;;;;;0.1;0.1;;;;;;;21.1;100.0;101230;;;;
2022/08/05 02:27:10;;;;;;;0.1;0.1;;;;;;;21.2;100.0;101230;;;;
2022/08/05 02:28:01;;;;;;;0.1;0.1;;;;;;;21.2;100.0;101230;;;;
2022/08/05 02:29:04;;;;;;;0.1;0.1;;;;;;;21.2;100.0;101240;;;;
2022/08/05 02:30:01;;;;;;;0.1;0.1;;;;;;;21.2;100.0;101240;;;;
2022/08/05 02:31:04;;;;;;;0.1;0.1;;;;;;;21.1;100.0;101250;;;;
2022/08/05 02:32:05;;;;;;;0.1;0.1;;;;;;;21.2;100.0;101250;;;;
2022/08/05 02:33:02;;;;;;;0.1;0.1;;;;;;;21.2;100.0;101250;;;;
2022/08/05 02:34:02;;;;;;;0.1;0.1;;;;;;;21.2;100.0;101250;;;;
2022/08/05 02:35:12;;;;;;;0.1;0.1;;;;;;;21.2;100.0;101240;;;;
2022/08/05 02:36:01;;;;;;;0.1;0.1;;;;;;;21.2;100.0;101240;;;;
2022/08/05 02:37:04;;;;;;;0.1;0.1;;;;;;;21.0;100.0;101230;;;;
2022/08/05 02:38:02;;;;;;;0.1;0.1;;;;;;;21.0;100.0;101230;;;;
2022/08/05 02:39:02;;;;;;;0.1;0.1;;;;;;;20.8;100.0;101240;;;;
2022/08/05 02:40:01;;;;;;;0.1;0.1;;;;;;;20.8;100.0;101240;;;;
2022/08/05 02:41:11;;;;;;;0.1;0.1;;;;;;;20.8;100.0;101250;;;;
2022/08/05 02:42:01;;;;;;;0.1;0.1;;;;;;;20.8;100.0;101250;;;;
2022/08/05 02:43:01;;;;;;;0.1;0.1;;;;;;;20.9;100.0;101250;;;;
2022/08/05 02:44:11;;;;;;;0.1;0.1;;;;;;;20.8;100.0;101250;;;;
2022/08/05 02:45:01;;;;;;;0.1;0.1;;;;;;;20.8;100.0;101250;;;;
2022/08/05 02:46:02;;;;;;;0.1;0.1;;;;;;;20.8;100.0;101250;;;;
2022/08/05 02:47:01;;;;;;;0.1;0.1;;;;;;;20.8;100.0;101240;;;;
2022/08/05 02:48:11;;;;;;;0.1;0.1;;;;;;;21.0;100.0;101250;;;;
2022/08/05 02:49:00;;;;;;;0.1;0.1;;;;;;;21.0;100.0;101250;;;;
2022/08/05 02:50:01;;;;;;;0.1;0.1;;;;;;;21.0;100.0;101250;;;;
2022/08/05 02:51:01;;;;;;;0.1;0.1;;;;;;;21.0;100.0;101250;;;;
2022/08/05 02:52:04;;;;;;;0.3;0.3;;;;;;;20.9;100.0;101270;;;;
2022/08/05 02:53:00;;;;;;;0.3;0.3;;;;;;;20.9;100.0;101270;;;;
2022/08/05 02:54:04;;;;;;;0.3;0.3;;;;;;;20.9;100.0;101270;;;;
2022/08/05 02:55:05;;;;;;;0.3;0.3;;;;;;;20.9;100.0;101270;;;;
2022/08/05 02:56:02;;;;;;;0.3;0.3;;;;;;;20.9;100.0;101270;;;;
2022/08/05 02:57:00;;;;;;;0.3;0.3;;;;;;;20.9;100.0;101270;;;;
2022/08/05 02:58:10;;;;;;;0.3;0.3;;;;;;;21.1;100.0;101270;;;;
2022/08/05 02:59:01;;;;;;;0.3;0.3;;;;;;;21.1;100.0;101270;;;;
2022/08/05 03:00:01;;;;;;;0.3;0.3;;;;;;;21.1;100.0;101270;;;;
2022/08/05 03:01:02;;;;;;;0.3;0.3;;;;;;;20.9;100.0;101280;;;;
2022/08/05 03:02:01;;;;;;;0.3;0.3;;;;;;;20.9;100.0;101280;;;;
2022/08/05 03:03:00;;;;;;;0.3;0.3;;;;;;;21.0;100.0;101270;;;;
2022/08/05 03:04:03;;;;;;;0.3;0.3;;;;;;;20.8;100.0;101260;;;;
2022/08/05 03:05:00;;;;;;;0.3;0.3;;;;;;;20.8;100.0;101260;;;;
2022/08/05 03:06:10;;;;;;;0.3;0.3;;;;;;;20.9;100.0;101250;;;;
2022/08/05 03:07:00;;;;;;;0.3;0.3;;;;;;;20.9;100.0;101250;;;;
2022/08/05 03:08:09;;;;;;;0.3;0.3;;;;;;;20.8;100.0;101240;;;;
2022/08/05 03:09:00;;;;;;;0.3;0.3;;;;;;;20.8;100.0;101240;;;;
2022/08/05 03:10:02;;;;;;;0.3;0.3;;;;;;;20.8;100.0;101240;;;;
2022/08/05 03:11:10;;;;;;;0.3;0.3;;;;;;;20.8;100.0;101240;;;;
2022/08/05 03:12:01;;;;;;;0.1;0.1;;;;;;;20.8;100.0;101240;;;;
2022/08/05 03:13:00;;;;;;;0.1;0.1;;;;;;;20.9;100.0;101230;;;;
2022/08/05 03:14:04;;;;;;;0.1;0.1;;;;;;;20.9;100.0;101220;;;;
2022/08/05 03:15:00;;;;;;;0.1;0.1;;;;;;;20.9;100.0;101220;;;;
2022/08/05 03:16:00;;;;;;;0.1;0.1;;;;;;;20.9;100.0;101220;;;;
2022/08/05 03:17:00;;;;;;;0.1;0.1;;;;;;;20.7;100.0;101210;;;;
2022/08/05 03:18:00;;;;;;;0.1;0.1;;;;;;;20.7;100.0;101210;;;;
2022/08/05 03:19:00;;;;;;;0.1;0.1;;;;;;;20.8;100.0;101210;;;;
2022/08/05 03:20:01;;;;;;;0.1;0.1;;;;;;;20.8;100.0;101210;;;;
2022/08/05 03:21:00;;;;;;;0.1;0.1;;;;;;;20.8;100.0;101210;;;;
2022/08/05 03:22:01;;;;;;;0.1;0.1;;;;;;;20.8;100.0;101210;;;;
2022/08/05 03:23:01;;;;;;;0.1;0.1;;;;;;;20.8;100.0;101220;;;;
2022/08/05 03:24:02;;;;;;;0.1;0.1;;;;;;;20.8;100.0;101220;;;;
2022/08/05 03:25:10;;;;;;;0.1;0.1;;;;;;;20.8;100.0;101220;;;;
2022/08/05 03:26:10;;;;;;;0.1;0.1;;;;;;;20.6;100.0;101230;;;;
2022/08/05 03:27:00;;;;;;;0.1;0.1;;;;;;;20.6;100.0;101230;;;;
2022/08/05 03:28:02;;;;;;;0.1;0.1;;;;;;;20.6;100.0;101230;;;;
2022/08/05 03:29:01;;;;;;;0.1;0.1;;;;;;;20.6;100.0;101230;;;;
2022/08/05 03:30:09;;;;;;;0.1;0.1;;;;;;;20.7;100.0;101240;;;;
2022/08/05 03:31:01;;;;;;;0.1;0.1;;;;;;;20.7;100.0;101240;;;;
2022/08/05 03:32:00;;;;;;;0.2;0.2;;;;;;;20.7;100.0;101240;;;;
2022/08/05 03:33:01;;;;;;;0.2;0.2;;;;;;;20.9;100.0;101250;;;;
2022/08/05 03:34:00;;;;;;;0.2;0.2;;;;;;;20.9;100.0;101250;;;;
2022/08/05 03:35:00;;;;;;;0.2;0.2;;;;;;;20.9;100.0;101250;;;;
2022/08/05 03:36:00;;;;;;;0.2;0.2;;;;;;;20.9;100.0;101250;;;;
2022/08/05 03:37:02;;;;;;;0.2;0.2;;;;;;;20.9;100.0;101240;;;;
2022/08/05 03:38:00;;;;;;;0.2;0.2;;;;;;;20.9;100.0;101240;;;;
2022/08/05 03:39:08;;;;;;;0.2;0.2;;;;;;;20.9;100.0;101240;;;;
2022/08/05 03:40:07;;;;;;;0.2;0.2;;;;;;;20.9;100.0;101240;;;;
2022/08/05 03:41:04;;;;;;;0.2;0.2;;;;;;;20.9;100.0;101250;;;;
2022/08/05 03:42:02;;;;;;;0.2;0.2;;;;;;;20.9;100.0;101250;;;;
2022/08/05 03:43:10;;;;;;;0.2;0.2;;;;;;;21.0;100.0;101250;;;;
2022/08/05 03:44:10;;;;;;;0.2;0.2;;;;;;;21.0;100.0;101250;;;;
2022/08/05 03:45:10;;;;;;;0.2;0.2;;;;;;;21.0;100.0;101250;;;;
2022/08/05 03:46:00;;;;;;;0.2;0.2;;;;;;;21.0;100.0;101250;;;;
2022/08/05 03:47:00;;;;;;;0.2;0.2;;;;;;;21.0;100.0;101250;;;;
2022/08/05 03:48:00;;;;;;;0.2;0.2;;;;;;;21.0;100.0;101250;;;;
2022/08/05 03:49:02;;;;;;;0.2;0.2;;;;;;;21.1;100.0;101250;;;;
2022/08/05 03:50:01;;;;;;;0.2;0.2;;;;;;;21.1;100.0;101250;;;;
2022/08/05 03:51:14;;;;;;;0.2;0.2;;;;;;;21.1;100.0;101260;;;;
2022/08/05 03:52:11;;;;;;;0.2;0.2;;;;;;;20.9;100.0;101260;;;;
2022/08/05 03:53:15;;;;;;;0.2;0.2;;;;;;;20.9;100.0;101260;;;;
2022/08/05 03:54:18;;;;;;;0.2;0.2;;;;;;;21.0;100.0;101270;;;;
2022/08/05 03:55:13;;;;;;;0.2;0.2;;;;;;;21.0;100.0;101270;;;;
2022/08/05 03:56:14;;;;;;;0.2;0.2;;;;;;;21.0;100.0;101270;;;;
2022/08/05 03:57:11;;;;;;;0.2;0.2;;;;;;;21.0;100.0;101270;;;;
2022/08/05 03:58:01;;;;;;;0.2;0.2;;;;;;;21.0;100.0;101270;;;;
2022/08/05 03:59:01;;;;;;;0.2;0.2;;;;;;;21.1;100.0;101260;;;;
2022/08/05 04:00:06;;;;;;;0.2;0.2;;;;;;;21.1;100.0;101250;;;;
2022/08/05 04:01:04;;;;;;;0.2;0.2;;;;;;;21.1;100.0;101250;;;;
2022/08/05 04:02:01;;;;;;;0.2;0.2;;;;;;;21.1;100.0;101250;;;;
2022/08/05 04:03:01;;;;;;;0.2;0.2;;;;;;;21.1;100.0;101260;;;;
2022/08/05 04:04:10;;;;;;;0.2;0.2;;;;;;;21.1;100.0;101260;;;;
2022/08/05 04:05:01;;;;;;;0.2;0.2;;;;;;;21.1;100.0;101260;;;;
2022/08/05 04:06:00;;;;;;;0.2;0.2;;;;;;;21.1;100.0;101260;;;;
2022/08/05 04:07:00;;;;;;;0.2;0.2;;;;;;;21.1;100.0;101250;;;;
2022/08/05 04:08:03;;;;;;;0.2;0.2;;;;;;;21.1;100.0;101250;;;;
2022/08/05 04:09:01;;;;;;;0.2;0.2;;;;;;;21.1;100.0;101240;;;;
2022/08/05 04:10:03;;;;;;;0.2;0.2;;;;;;;21.1;100.0;101240;;;;
2022/08/05 04:11:01;;;;;;;0.2;0.2;;;;;;;21.0;100.0;101240;;;;
2022/08/05 04:12:00;;;;;;;0.2;0.2;;;;;;;21.0;100.0;101240;;;;
2022/08/05 04:13:04;;;;;;;0.2;0.2;;;;;;;20.9;100.0;101240;;;;
2022/08/05 04:14:00;;;;;;;0.2;0.2;;;;;;;20.9;100.0;101240;;;;
2022/08/05 04:15:00;;;;;;;0.2;0.2;;;;;;;20.8;100.0;101230;;;;
2022/08/05 04:16:03;;;;;;;0.2;0.2;;;;;;;20.8;100.0;101230;;;;
2022/08/05 04:17:03;;;;;;;0.2;0.2;;;;;;;20.7;100.0;101230;;;;
2022/08/05 04:18:02;;;;;;;0.2;0.2;;;;;;;20.7;100.0;101230;;;;
2022/08/05 04:19:00;;;;;;;0.2;0.2;;;;;;;20.7;100.0;101230;;;;
2022/08/05 04:20:02;;;;;;;0.2;0.2;;;;;;;20.7;100.0;101230;;;;
2022/08/05 04:21:01;;;;;;;0.2;0.2;;;;;;;20.8;100.0;101230;;;;
2022/08/05 04:22:10;;;;;;;0.2;0.2;;;;;;;20.9;100.0;101240;;;;
2022/08/05 04:23:01;;;;;;;0.2;0.2;;;;;;;20.9;100.0;101240;;;;
2022/08/05 04:24:09;;;;;;;0.2;0.2;;;;;;;20.9;100.0;101240;;;;
2022/08/05 04:25:00;;;;;;;0.2;0.2;;;;;;;20.9;100.0;101240;;;;
2022/08/05 04:26:01;;;;;;;0.2;0.2;;;;;;;20.9;100.0;101240;;;;
2022/08/05 04:27:00;;;;;;;0.2;0.2;;;;;;;20.9;100.0;101240;;;;
2022/08/05 04:28:10;;;;;;;0.2;0.2;;;;;;;20.9;100.0;101240;;;;
2022/08/05 04:29:07;;;;;;;0.2;0.2;;;;;;;20.9;100.0;101240;;;;
2022/08/05 04:30:03;;;;;;;0.2;0.2;;;;;;;20.9;100.0;101250;;;;
2022/08/05 04:31:01;;;;;;;0.2;0.2;;;;;;;20.9;100.0;101250;;;;
2022/08/05 04:32:00;;;;;;;0.2;0.2;;;;;;;20.9;100.0;101250;;;;
2022/08/05 04:33:01;;;;;;;0.2;0.2;;;;;;;20.9;100.0;101260;;;;
2022/08/05 04:34:10;;;;;;;0.2;0.2;;;;;;;20.9;100.0;101270;;;;
2022/08/05 04:35:00;;;;;;;0.2;0.2;;;;;;;20.9;100.0;101270;;;;
2022/08/05 04:36:11;;;;;;;0.2;0.2;;;;;;;20.9;100.0;101270;;;;
2022/08/05 04:37:03;;;;;;;0.2;0.2;;;;;;;20.9;100.0;101270;;;;
2022/08/05 04:38:06;;;;;;;0.2;0.2;;;;;;;20.9;100.0;101260;;;;
2022/08/05 04:39:00;;;;;;;0.2;0.2;;;;;;;20.9;100.0;101260;;;;
2022/08/05 04:40:00;;;;;;;0.2;0.2;;;;;;;20.9;100.0;101260;;;;
2022/08/05 04:41:03;;;;;;;0.2;0.2;;;;;;;20.9;100.0;101270;;;;
2022/08/05 04:42:01;;;;;;;0.2;0.2;;;;;;;20.9;100.0;101270;;;;
2022/08/05 04:43:00;;;;;;;0.2;0.2;;;;;;;20.7;100.0;101270;;;;
2022/08/05 04:44:00;;;;;;;0.2;0.2;;;;;;;20.7;100.0;101270;;;;
2022/08/05 04:45:01;;;;;;;0.2;0.2;;;;;;;20.9;100.0;101270;;;;
2022/08/05 04:46:00;;;;;;;0.2;0.2;;;;;;;20.9;100.0;101270;;;;
2022/08/05 04:47:10;;;;;;;0.2;0.2;;;;;;;20.8;100.0;101270;;;;
2022/08/05 04:48:16;;;;;;;0.2;0.2;;;;;;;20.7;100.0;101280;;;;
2022/08/05 04:49:01;;;;;;;0.2;0.2;;;;;;;20.7;100.0;101280;;;;
2022/08/05 04:50:10;;;;;;;0.2;0.2;;;;;;;20.7;100.0;101280;;;;
2022/08/05 04:51:11;;;;;;;0.2;0.2;;;;;;;20.7;100.0;101280;;;;
2022/08/05 04:52:00;;;;;;;0.2;0.2;;;;;;;20.7;100.0;101280;;;;
2022/08/05 04:53:01;;;;;;;0.2;0.2;;;;;;;20.8;100.0;101280;;;;
2022/08/05 04:54:02;;;;;;;0.2;0.2;;;;;;;20.8;100.0;101280;;;;
2022/08/05 04:55:10;;;;;;;0.2;0.2;;;;;;;20.7;100.0;101270;;;;
2022/08/05 04:56:10;;;;;;;0.2;0.2;;;;;;;20.7;100.0;101270;;;;
2022/08/05 04:57:00;;;;;;;0.2;0.2;;;;;;;20.7;100.0;101270;;;;
2022/08/05 04:58:00;;;;;;;0.2;0.2;;;;;;;20.7;100.0;101270;;;;
2022/08/05 04:59:10;;;;;;;0.2;0.2;;;;;;;20.7;100.0;101270;;;;
2022/08/05 05:00:00;;;;;;;0.2;0.2;;;;;;;20.7;100.0;101270;;;;
2022/08/05 05:01:00;;;;;;;0.2;0.2;;;;;;;20.7;100.0;101280;;;;
2022/08/05 05:02:10;;;;;;;0.2;0.2;;;;;;;20.6;100.0;101270;;;;
2022/08/05 05:03:04;;;;;;;0.2;0.2;;;;;;;20.6;100.0;101270;;;;
2022/08/05 05:04:00;;;;;;;0.2;0.2;;;;;;;20.6;100.0;101270;;;;
2022/08/05 05:05:03;;;;;;;0.2;0.2;;;;;;;20.8;100.0;101270;;;;
2022/08/05 05:06:10;;;;;;;0.2;0.2;;;;;;;20.8;100.0;101280;;;;
2022/08/05 05:07:02;;;;;;;0.2;0.2;;;;;;;20.8;100.0;101280;;;;
2022/08/05 05:08:02;;;;;;;0.2;0.2;;;;;;;20.8;100.0;101280;;;;
2022/08/05 05:09:05;;;;;;;0.2;0.2;;;;;;;20.8;100.0;101280;;;;
2022/08/05 05:10:04;;;;;;;0.2;0.2;;;;;;;20.8;100.0;101280;;;;
2022/08/05 05:11:00;;;;;;;0.2;0.2;;;;;;;20.8;100.0;101280;;;;
2022/08/05 05:12:03;;;;;;;0.1;0.1;;;;;;;20.8;100.0;101280;;;;
2022/08/05 05:13:03;;;;;;;0.1;0.1;;;;;;;20.8;100.0;101280;;;;
2022/08/05 05:14:02;;;;;;;0.1;0.1;;;;;;;20.8;100.0;101280;;;;
2022/08/05 05:15:03;;;;;;;0.1;0.1;;;;;;;20.8;100.0;101270;;;;
2022/08/05 05:16:06;;;;;;;0.1;0.1;;;;;;;20.8;100.0;101270;;;;
2022/08/05 05:17:00;;;;;;;0.1;0.1;;;;;;;20.8;100.0;101270;;;;
2022/08/05 05:18:01;;;;;;;0.1;0.1;;;;;;;20.8;100.0;101270;;;;
2022/08/05 05:19:10;;;;;;;0.1;0.1;;;;;;;20.7;100.0;101270;;;;
2022/08/05 05:20:00;;;;;;;0.1;0.1;;;;;;;20.7;100.0;101270;;;;
2022/08/05 05:21:01;;;;;;;0.1;0.1;;;;;;;20.7;100.0;101270;;;;
2022/08/05 05:22:10;;;;;;;0.1;0.1;;;;;;;20.7;100.0;101270;;;;
2022/08/05 05:23:11;;;;;;;0.1;0.1;;;;;;;20.7;100.0;101270;;;;
2022/08/05 05:24:08;;;;;;;0.1;0.1;;;;;;;20.8;100.0;101270;;;;
2022/08/05 05:25:11;;;;;;;0.1;0.1;;;;;;;20.8;100.0;101270;;;;
2022/08/05 05:26:00;;;;;;;0.1;0.1;;;;;;;20.8;100.0;101270;;;;
2022/08/05 05:27:00;;;;;;;0.1;0.1;;;;;;;20.9;100.0;101260;;;;
2022/08/05 05:28:00;;;;;;;0.1;0.1;;;;;;;20.9;100.0;101260;;;;
2022/08/05 05:29:00;;;;;;;0.1;0.1;;;;;;;20.9;100.0;101270;;;;
2022/08/05 05:30:05;;;;;;;0.1;0.1;;;;;;;20.9;100.0;101270;;;;
2022/08/05 05:31:00;;;;;;;0.1;0.1;;;;;;;20.9;100.0;101270;;;;
2022/08/05 05:32:00;;;;;;;0.5;0.5;;;;;;;20.9;100.0;101270;;;;
2022/08/05 05:33:11;;;;;;;0.5;0.5;;;;;;;21.0;100.0;101270;;;;
2022/08/05 05:34:02;;;;;;;0.5;0.5;;;;;;;21.0;100.0;101270;;;;
2022/08/05 05:35:03;;;;;;;0.5;0.5;;;;;;;21.0;100.0;101280;;;;
2022/08/05 05:36:00;;;;;;;0.5;0.5;;;;;;;21.0;100.0;101280;;;;
2022/08/05 05:37:01;;;;;;;0.5;0.5;;;;;;;21.1;100.0;101290;;;;
2022/08/05 05:38:03;;;;;;;0.5;0.5;;;;;;;21.1;100.0;101290;;;;
2022/08/05 05:39:03;;;;;;;0.5;0.5;;;;;;;21.1;100.0;101290;;;;
2022/08/05 05:40:00;;;;;;;0.5;0.5;;;;;;;21.1;100.0;101290;;;;
2022/08/05 05:41:00;;;;;;;0.5;0.5;;;;;;;21.2;100.0;101290;;;;
2022/08/05 05:42:00;;;;;;;0.5;0.5;;;;;;;21.2;100.0;101290;;;;
2022/08/05 05:43:02;;;;;;;0.5;0.5;;;;;;;21.1;100.0;101290;;;;
2022/08/05 05:44:00;;;;;;;0.5;0.5;;;;;;;21.1;100.0;101290;;;;
2022/08/05 05:45:03;;;;;;;0.5;0.5;;;;;;;21.0;100.0;101290;;;;
2022/08/05 05:46:01;;;;;;;0.5;0.5;;;;;;;21.0;100.0;101290;;;;
2022/08/05 05:47:04;;;;;;;0.5;0.5;;;;;;;21.0;100.0;101300;;;;
2022/08/05 05:48:07;;;;;;;0.5;0.5;;;;;;;21.1;100.0;101300;;;;
2022/08/05 05:49:06;;;;;;;0.5;0.5;;;;;;;21.1;100.0;101300;;;;
2022/08/05 05:50:04;;;;;;;0.5;0.5;;;;;;;21.0;100.0;101300;;;;
2022/08/05 05:51:10;;;;;;;0.1;0.1;;;;;;;21.0;100.0;101300;;;;
2022/08/05 05:52:05;;;;;;;0.1;0.1;;;;;;;21.0;100.0;101300;;;;
2022/08/05 05:53:00;;;;;;;0.1;0.1;;;;;;;21.0;100.0;101300;;;;
2022/08/05 05:54:00;;;;;;;0.1;0.1;;;;;;;21.0;100.0;101300;;;;
2022/08/05 05:55:01;;;;;;;0.1;0.1;;;;;;;21.0;100.0;101300;;;;
2022/08/05 05:56:03;;;;;;;0.1;0.1;;;;;;;21.0;100.0;101300;;;;
2022/08/05 05:57:00;;;;;;;0.1;0.1;;;;;;;20.9;100.0;101300;;;;
2022/08/05 05:58:04;;;;;;;0.1;0.1;;;;;;;21.0;100.0;101300;;;;
2022/08/05 05:59:04;;;;;;;0.1;0.1;;;;;;;21.0;100.0;101300;;;;
2022/08/05 06:00:00;;;;;;;0.1;0.1;;;;;;;21.0;100.0;101300;;;;
2022/08/05 06:01:10;;;;;;;0.1;0.1;;;;;;;20.9;100.0;101300;;;;
2022/08/05 06:02:00;;;;;;;0.1;0.1;;;;;;;20.9;100.0;101300;;;;
2022/08/05 06:03:02;;;;;;;0.1;0.1;;;;;;;20.8;100.0;101300;;;;
2022/08/05 06:04:03;;;;;;;0.1;0.1;;;;;;;20.9;100.0;101310;;;;
2022/08/05 06:05:01;;;;;;;0.1;0.1;;;;;;;20.9;100.0;101310;;;;
2022/08/05 06:06:01;;;;;;;0.1;0.1;;;;;;;20.9;100.0;101310;;;;
2022/08/05 06:07:01;;;;;;;0.1;0.1;;;;;;;20.9;100.0;101300;;;;
2022/08/05 06:08:02;;;;;;;0.1;0.1;;;;;;;20.9;100.0;101300;;;;
2022/08/05 06:09:04;;;;;;;0.1;0.1;;;;;;;21.0;100.0;101310;;;;
2022/08/05 06:10:07;;;;;;;0.1;0.1;;;;;;;21.0;100.0;101310;;;;
2022/08/05 06:11:00;;;;;;;0.1;0.1;;;;;;;21.0;100.0;101310;;;;
2022/08/05 06:12:02;;;;;;;0.1;0.1;;;;;;;21.0;100.0;101310;;;;
2022/08/05 06:13:00;;;;;;;0.1;0.1;;;;;;;21.1;100.0;101310;;;;
2022/08/05 06:14:00;;;;;;;0.1;0.1;;;;;;;21.1;100.0;101310;;;;
2022/08/05 06:15:01;;;;;;;0.1;0.1;;;;;;;21.1;100.0;101310;;;;
2022/08/05 06:16:10;;;;;;;0.1;0.1;;;;;;;21.1;100.0;101310;;;;
2022/08/05 06:17:10;;;;;;;0.1;0.1;;;;;;;21.1;100.0;101310;;;;
2022/08/05 06:18:00;;;;;;;0.1;0.1;;;;;;;21.1;100.0;101310;;;;
2022/08/05 06:19:02;;;;;;;0.1;0.1;;;;;;;21.2;100.0;101320;;;;
2022/08/05 06:20:00;;;;;;;0.1;0.1;;;;;;;21.2;100.0;101320;;;;
2022/08/05 06:21:00;;;;;;;0.1;0.1;;;;;;;21.2;100.0;101320;;;;
2022/08/05 06:22:00;;;;;;;0.1;0.1;;;;;;;21.2;100.0;101320;;;;